createdAt,value
2017-11-01T00:01:49.119Z,16.53
2017-11-01T00:04:17.239Z,15.53
2017-11-01T00:06:46.053Z,14.13
2017-11-01T00:09:14.919Z,14.70
2017-11-01T00:11:42.988Z,16.90
2017-11-01T00:14:11.083Z,14.90
2017-11-01T00:16:39.146Z,14.33
2017-11-01T00:19:07.238Z,15.50
2017-11-01T00:21:35.315Z,13.40
2017-11-01T00:24:03.391Z,15.53
2017-11-01T00:26:31.476Z,15.10
2017-11-01T00:28:59.548Z,14.83
2017-11-01T00:31:27.622Z,14.13
2017-11-01T00:33:55.744Z,15.10
2017-11-01T00:36:23.851Z,14.47
2017-11-01T00:38:51.925Z,14.60
2017-11-01T00:41:20.000Z,13.47
2017-11-01T00:43:48.081Z,14.63
2017-11-01T00:46:16.150Z,14.17
2017-11-01T00:48:44.211Z,13.93
2017-11-01T00:51:12.312Z,15.50
2017-11-01T00:53:40.363Z,13.90
2017-11-01T00:56:08.443Z,16.07
2017-11-01T00:58:36.498Z,15.43
2017-11-01T01:01:04.704Z,15.10
2017-11-01T01:03:33.527Z,15.10
2017-11-01T01:06:01.583Z,15.03
2017-11-01T01:08:29.667Z,16.07
2017-11-01T01:10:57.754Z,15.57
2017-11-01T01:13:25.847Z,16.07
2017-11-01T01:15:53.918Z,15.40
2017-11-01T01:18:22.006Z,16.37
2017-11-01T01:20:50.082Z,17.63
2017-11-01T01:23:18.905Z,17.77
2017-11-01T01:25:46.994Z,17.47
2017-11-01T01:28:15.091Z,16.60
2017-11-01T01:30:43.171Z,17.90
2017-11-01T01:33:11.254Z,18.17
2017-11-01T01:35:39.328Z,17.87
2017-11-01T01:38:08.207Z,17.70
2017-11-01T01:40:36.270Z,18.80
2017-11-01T01:43:04.343Z,21.77
2017-11-01T01:45:32.423Z,17.80
2017-11-01T01:48:00.488Z,17.30
2017-11-01T01:50:28.602Z,17.33
2017-11-01T01:52:56.668Z,17.70
2017-11-01T01:55:24.746Z,18.10
2017-11-01T01:57:52.828Z,21.00
2017-11-01T02:00:20.919Z,18.10
2017-11-01T02:02:48.992Z,19.33
2017-11-01T02:05:17.083Z,18.60
2017-11-01T02:07:45.159Z,18.07
2017-11-01T02:10:13.260Z,19.70
2017-11-01T02:12:42.154Z,18.23
2017-11-01T02:15:10.971Z,17.50
2017-11-01T02:17:39.131Z,17.93
2017-11-01T02:20:07.226Z,19.07
2017-11-01T02:22:35.288Z,18.20
2017-11-01T02:25:03.387Z,17.90
2017-11-01T02:27:31.486Z,17.90
2017-11-01T02:30:00.323Z,18.63
2017-11-01T02:32:28.402Z,18.47
2017-11-01T02:34:56.479Z,19.03
2017-11-01T02:37:24.549Z,20.43
2017-11-01T02:39:52.639Z,18.47
2017-11-01T02:42:20.712Z,20.00
2017-11-01T02:44:48.783Z,19.30
2017-11-01T02:47:18.364Z,19.50
2017-11-01T02:49:46.433Z,20.33
2017-11-01T02:52:14.514Z,20.37
2017-11-01T02:54:43.350Z,19.93
2017-11-01T02:57:11.427Z,19.30
2017-11-01T02:59:39.547Z,20.23
2017-11-01T03:02:07.615Z,20.30
2017-11-01T03:04:36.450Z,22.07
2017-11-01T03:07:04.551Z,18.30
2017-11-01T03:09:32.598Z,19.40
2017-11-01T03:12:00.682Z,19.33
2017-11-01T03:14:28.775Z,19.43
2017-11-01T03:16:57.630Z,19.73
2017-11-01T03:19:25.701Z,19.73
2017-11-01T03:21:53.754Z,19.60
2017-11-01T03:24:21.874Z,19.57
2017-11-01T03:26:49.942Z,19.33
2017-11-01T03:29:17.999Z,19.30
2017-11-01T03:31:46.070Z,18.80
2017-11-01T03:34:14.154Z,19.77
2017-11-01T03:36:42.232Z,19.07
2017-11-01T03:39:10.298Z,19.43
2017-11-01T03:41:38.391Z,19.57
2017-11-01T03:44:07.218Z,18.70
2017-11-01T03:46:35.293Z,18.77
2017-11-01T03:49:03.357Z,19.00
2017-11-01T03:51:31.424Z,18.90
2017-11-01T03:53:59.507Z,17.03
2017-11-01T03:56:27.566Z,18.80
2017-11-01T03:58:55.657Z,17.03
2017-11-01T04:01:23.715Z,18.97
2017-11-01T04:03:51.783Z,18.77
2017-11-01T04:06:19.866Z,18.17
2017-11-01T04:08:47.993Z,18.70
2017-11-01T04:11:16.051Z,17.83
2017-11-01T04:13:44.147Z,18.77
2017-11-01T04:16:12.990Z,19.10
2017-11-01T04:18:46.640Z,20.73
2017-11-01T04:21:15.475Z,19.50
2017-11-01T04:23:43.575Z,20.90
2017-11-01T04:26:11.642Z,20.43
2017-11-01T04:28:39.716Z,20.60
2017-11-01T04:31:07.805Z,20.67
2017-11-01T04:33:35.911Z,21.17
2017-11-01T04:36:03.991Z,21.73
2017-11-01T04:38:32.067Z,22.80
2017-11-01T04:41:00.139Z,22.23
2017-11-01T04:43:28.289Z,23.10
2017-11-01T04:45:56.324Z,21.77
2017-11-01T04:48:26.272Z,23.77
2017-11-01T04:50:54.342Z,23.03
2017-11-01T04:53:26.118Z,23.40
2017-11-01T04:55:54.179Z,23.30
2017-11-01T04:58:23.019Z,24.00
2017-11-01T05:00:51.102Z,24.07
2017-11-01T05:03:22.158Z,24.10
2017-11-01T05:05:50.232Z,23.90
2017-11-01T05:08:23.870Z,25.57
2017-11-01T05:10:54.886Z,25.90
2017-11-01T05:13:22.962Z,25.50
2017-11-01T05:15:51.795Z,26.33
2017-11-01T05:18:19.867Z,26.00
2017-11-01T05:20:47.935Z,24.87
2017-11-01T05:23:16.015Z,26.30
2017-11-01T05:25:47.041Z,26.60
2017-11-01T05:28:15.916Z,26.30
2017-11-01T05:30:44.001Z,26.07
2017-11-01T05:33:12.075Z,27.03
2017-11-01T05:35:40.163Z,26.13
2017-11-01T05:38:08.235Z,26.77
2017-11-01T05:40:36.330Z,27.10
2017-11-01T05:43:04.391Z,28.67
2017-11-01T05:45:32.459Z,27.40
2017-11-01T05:48:00.532Z,26.17
2017-11-01T05:50:28.615Z,28.20
2017-11-01T05:52:56.687Z,27.90
2017-11-01T05:55:24.763Z,27.73
2017-11-01T05:57:52.830Z,27.70
2017-11-01T06:00:20.899Z,27.40
2017-11-01T06:02:48.957Z,28.20
2017-11-01T06:05:17.059Z,26.43
2017-11-01T06:07:45.911Z,27.50
2017-11-01T06:10:14.003Z,28.93
2017-11-01T06:12:42.849Z,27.87
2017-11-01T06:15:10.945Z,28.10
2017-11-01T06:17:39.019Z,29.13
2017-11-01T06:20:07.091Z,26.70
2017-11-01T06:22:35.163Z,27.07
2017-11-01T06:25:03.250Z,26.20
2017-11-01T06:27:31.314Z,24.40
2017-11-01T06:29:59.394Z,26.50
2017-11-01T06:32:27.474Z,27.17
2017-11-01T06:34:55.537Z,27.80
2017-11-01T06:37:24.545Z,25.60
2017-11-01T06:40:10.219Z,27.10
2017-11-01T06:42:39.687Z,25.70
2017-11-01T06:45:16.838Z,25.30
2017-11-01T07:08:52.414Z,24.47
2017-11-01T07:14:25.520Z,25.67
2017-11-01T07:20:21.677Z,24.43
2017-11-01T07:43:49.876Z,23.60
2017-11-01T07:46:23.538Z,23.63
2017-11-01T07:48:57.489Z,23.50
2017-11-01T07:51:31.542Z,23.83
2017-11-01T07:54:05.445Z,24.00
2017-11-01T07:56:39.447Z,21.93
2017-11-01T07:59:18.328Z,22.23
2017-11-01T08:01:52.195Z,20.97
2017-11-01T08:04:26.572Z,21.87
2017-11-01T08:07:01.082Z,21.00
2017-11-01T08:09:35.150Z,20.70
2017-11-01T08:12:09.069Z,20.47
2017-11-01T08:14:43.070Z,20.00
2017-11-01T08:17:16.973Z,18.73
2017-11-01T08:19:54.508Z,21.97
2017-11-01T08:22:29.216Z,19.90
2017-11-01T08:25:04.961Z,20.50
2017-11-01T08:27:38.780Z,20.63
2017-11-01T08:30:12.584Z,20.00
2017-11-01T08:32:47.096Z,22.00
2017-11-01T08:35:21.565Z,19.97
2017-11-01T08:37:55.478Z,20.00
2017-11-01T08:40:31.858Z,22.97
2017-11-01T08:43:05.618Z,20.83
2017-11-01T08:45:40.454Z,19.80
2017-11-01T08:48:15.003Z,21.93
2017-11-01T08:50:48.573Z,20.53
2017-11-01T08:53:22.371Z,21.50
2017-11-01T08:55:55.917Z,20.87
2017-11-01T08:58:29.587Z,21.10
2017-11-01T09:01:03.414Z,21.67
2017-11-01T09:03:37.117Z,21.57
2017-11-01T09:06:10.947Z,21.03
2017-11-01T09:08:44.785Z,21.90
2017-11-01T09:11:19.267Z,21.17
2017-11-01T09:13:52.983Z,22.50
2017-11-01T09:16:28.640Z,21.63
2017-11-01T09:19:03.203Z,22.20
2017-11-01T09:21:37.286Z,20.30
2017-11-01T09:24:12.124Z,19.67
2017-11-01T09:26:45.982Z,19.70
2017-11-01T09:29:19.755Z,19.80
2017-11-01T09:31:55.310Z,21.43
2017-11-01T09:34:28.917Z,20.53
2017-11-01T09:37:03.355Z,20.57
2017-11-01T09:39:37.882Z,20.53
2017-11-01T09:42:11.567Z,20.07
2017-11-01T09:44:45.179Z,20.50
2017-11-01T09:47:18.714Z,20.50
2017-11-01T09:49:52.414Z,18.63
2017-11-01T09:52:25.995Z,19.60
2017-11-01T09:54:59.679Z,18.23
2017-11-01T09:57:33.358Z,18.53
2017-11-01T10:00:06.952Z,20.30
2017-11-01T10:02:40.799Z,18.50
2017-11-01T10:05:14.552Z,20.63
2017-11-01T10:07:48.162Z,18.57
2017-11-01T10:10:21.938Z,20.30
2017-11-01T10:12:55.500Z,19.37
2017-11-01T10:15:29.112Z,22.27
2017-11-01T10:18:02.745Z,20.03
2017-11-01T10:20:36.533Z,17.87
2017-11-01T10:23:10.137Z,18.90
2017-11-01T10:25:43.918Z,21.10
2017-11-01T10:28:17.493Z,17.60
2017-11-01T10:30:51.997Z,18.83
2017-11-01T10:33:25.768Z,18.63
2017-11-01T10:35:59.407Z,18.70
2017-11-01T10:38:33.047Z,17.87
2017-11-01T10:41:06.907Z,19.73
2017-11-01T10:43:41.302Z,16.40
2017-11-01T10:46:15.726Z,17.50
2017-11-01T10:48:49.552Z,18.33
2017-11-01T10:51:23.210Z,18.77
2017-11-01T10:53:56.750Z,18.23
2017-11-01T10:56:30.540Z,15.70
2017-11-01T10:59:04.219Z,15.53
2017-11-01T11:01:37.921Z,15.90
2017-11-01T11:04:11.617Z,16.90
2017-11-01T11:06:46.152Z,16.97
2017-11-01T11:09:20.573Z,15.47
2017-11-01T11:11:54.156Z,14.93
2017-11-01T11:14:27.682Z,13.83
2017-11-01T11:17:01.486Z,15.50
2017-11-01T11:19:35.195Z,15.23
2017-11-01T11:22:08.902Z,14.17
2017-11-01T11:24:43.287Z,13.13
2017-11-01T11:27:11.383Z,12.57
2017-11-01T11:29:39.484Z,12.23
2017-11-01T11:32:07.522Z,12.30
2017-11-01T11:34:35.647Z,11.27
2017-11-01T11:37:04.505Z,10.83
2017-11-01T11:39:32.612Z,11.10
2017-11-01T11:42:00.689Z,10.10
2017-11-01T11:44:28.773Z,14.83
2017-11-01T11:46:56.878Z,10.67
2017-11-01T11:49:24.978Z,10.80
2017-11-01T11:51:53.815Z,10.67
2017-11-01T11:54:21.971Z,9.90
2017-11-01T11:56:50.786Z,9.87
2017-11-01T11:59:18.893Z,9.90
2017-11-01T12:01:46.954Z,9.50
2017-11-01T12:04:16.625Z,10.03
2017-11-01T12:06:44.689Z,10.43
2017-11-01T12:09:12.872Z,9.40
2017-11-01T12:11:41.088Z,10.43
2017-11-01T12:14:09.967Z,9.47
2017-11-01T12:16:38.093Z,10.37
2017-11-01T12:19:06.161Z,9.23
2017-11-01T12:21:34.319Z,9.90
2017-11-01T12:24:03.154Z,9.60
2017-11-01T12:26:31.241Z,8.90
2017-11-01T12:28:59.319Z,10.00
2017-11-01T12:31:27.384Z,9.53
2017-11-01T12:33:55.480Z,10.10
2017-11-01T12:36:23.575Z,10.23
2017-11-01T12:38:52.413Z,9.70
2017-11-01T12:41:20.478Z,11.07
2017-11-01T12:43:48.566Z,10.87
2017-11-01T12:46:16.683Z,10.80
2017-11-01T12:48:45.517Z,9.40
2017-11-01T12:51:13.591Z,10.50
2017-11-01T12:53:41.659Z,8.40
2017-11-01T12:56:09.750Z,9.80
2017-11-01T12:58:37.812Z,9.47
2017-11-01T13:01:05.928Z,9.53
2017-11-01T13:03:34.739Z,10.13
2017-11-01T13:06:02.847Z,8.77
2017-11-01T13:08:30.890Z,9.63
2017-11-01T13:10:58.999Z,9.90
2017-11-01T13:13:27.055Z,9.60
2017-11-01T13:15:55.128Z,9.30
2017-11-01T13:18:23.205Z,7.87
2017-11-01T13:20:51.284Z,8.50
2017-11-01T13:23:19.354Z,9.10
2017-11-01T13:25:47.406Z,8.53
2017-11-01T13:28:15.480Z,8.90
2017-11-01T13:30:43.559Z,8.43
2017-11-01T13:33:11.646Z,8.40
2017-11-01T13:35:40.692Z,13.47
2017-11-01T13:38:08.758Z,9.07
2017-11-01T13:40:36.868Z,8.77
2017-11-01T13:43:04.933Z,7.67
2017-11-01T13:45:33.006Z,9.03
2017-11-01T13:48:01.076Z,7.40
2017-11-01T13:50:29.167Z,8.80
2017-11-01T13:52:58.042Z,9.03
2017-11-01T13:55:26.120Z,9.17
2017-11-01T13:57:55.012Z,8.07
2017-11-01T14:00:25.346Z,8.90
2017-11-01T14:02:53.431Z,8.60
2017-11-01T14:05:21.516Z,9.27
2017-11-01T14:07:50.364Z,8.63
2017-11-01T14:10:18.449Z,9.17
2017-11-01T14:12:46.527Z,9.90
2017-11-01T14:15:14.602Z,9.57
2017-11-01T14:17:42.691Z,8.20
2017-11-01T14:20:10.949Z,8.03
2017-11-01T14:22:39.243Z,8.97
2017-11-01T14:27:58.002Z,8.90
2017-11-01T14:30:26.189Z,8.27
2017-11-01T14:32:54.315Z,8.53
2017-11-01T14:35:22.437Z,7.67
2017-11-01T14:41:00.058Z,7.90
2017-11-01T14:43:41.053Z,8.60
2017-11-01T14:46:10.179Z,8.40
2017-11-01T14:48:38.422Z,8.30
2017-11-01T14:51:16.646Z,8.63
2017-11-01T14:53:45.175Z,7.27
2017-11-01T14:56:13.259Z,7.47
2017-11-01T14:58:41.331Z,8.30
2017-11-01T15:01:09.758Z,7.73
2017-11-01T15:03:37.845Z,6.93
2017-11-01T15:06:05.963Z,7.50
2017-11-01T15:08:34.062Z,8.47
2017-11-01T15:11:02.107Z,8.50
2017-11-01T15:13:30.216Z,7.73
2017-11-01T15:15:58.296Z,8.23
2017-11-01T15:18:26.401Z,9.93
2017-11-01T15:20:55.244Z,9.50
2017-11-01T15:23:23.330Z,7.40
2017-11-01T15:25:51.388Z,8.07
2017-11-01T15:28:20.248Z,8.53
2017-11-01T15:30:48.343Z,7.33
2017-11-01T15:33:16.427Z,8.00
2017-11-01T15:35:44.500Z,9.83
2017-11-01T15:38:12.574Z,9.70
2017-11-01T15:40:40.665Z,9.47
2017-11-01T15:43:09.488Z,9.13
2017-11-01T15:45:37.577Z,9.17
2017-11-01T15:48:05.654Z,8.67
2017-11-01T15:50:33.803Z,9.50
2017-11-01T15:53:01.871Z,8.10
2017-11-01T15:55:29.947Z,8.70
2017-11-01T15:57:58.017Z,8.13
2017-11-01T16:00:26.105Z,9.30
2017-11-01T16:02:54.951Z,8.93
2017-11-01T16:05:23.020Z,7.97
2017-11-01T16:07:51.887Z,7.90
2017-11-01T16:10:19.940Z,8.20
2017-11-01T16:12:48.039Z,7.97
2017-11-01T16:15:16.121Z,9.60
2017-11-01T16:17:45.042Z,7.17
2017-11-01T16:20:15.041Z,8.10
2017-11-01T16:22:44.181Z,9.30
2017-11-01T16:25:12.890Z,9.10
2017-11-01T16:27:40.995Z,9.73
2017-11-01T16:30:09.076Z,8.63
2017-11-01T16:32:37.115Z,9.13
2017-11-01T16:35:05.749Z,11.30
2017-11-01T16:37:33.902Z,10.70
2017-11-01T16:40:01.952Z,8.20
2017-11-01T16:42:30.078Z,9.20
2017-11-01T16:44:58.341Z,10.43
2017-11-01T16:47:26.428Z,11.23
2017-11-01T16:49:54.583Z,12.70
2017-11-01T16:52:22.644Z,16.87
2017-11-01T16:57:24.883Z,12.90
2017-11-01T16:59:52.974Z,16.30
2017-11-01T17:02:31.984Z,12.77
2017-11-01T17:05:00.921Z,11.20
2017-11-01T17:07:29.812Z,11.60
2017-11-01T17:09:57.887Z,11.17
2017-11-01T17:12:26.725Z,27.63
2017-11-01T17:14:54.812Z,14.80
2017-11-01T17:17:22.883Z,15.73
2017-11-01T17:19:50.997Z,17.63
2017-11-01T17:22:19.832Z,16.20
2017-11-01T17:24:47.931Z,12.17
2017-11-01T17:27:15.980Z,12.37
2017-11-01T17:29:44.059Z,12.20
2017-11-01T17:32:12.159Z,14.83
2017-11-01T17:34:41.027Z,16.33
2017-11-01T17:37:09.107Z,16.80
2017-11-01T17:39:37.167Z,18.93
2017-11-01T17:42:06.040Z,13.83
2017-11-01T17:44:34.150Z,13.50
2017-11-01T17:47:03.006Z,13.60
2017-11-01T17:49:31.077Z,13.90
2017-11-01T17:51:59.204Z,14.67
2017-11-01T17:54:28.019Z,13.50
2017-11-01T17:56:56.114Z,14.37
2017-11-01T17:59:24.302Z,12.87
2017-11-01T18:01:53.158Z,11.23
2017-11-01T18:04:21.993Z,10.70
2017-11-01T18:06:50.156Z,10.60
2017-11-01T18:09:18.233Z,10.13
2017-11-01T18:11:46.344Z,11.17
2017-11-01T18:14:14.486Z,12.43
2017-11-01T18:16:42.577Z,13.10
2017-11-01T18:19:10.665Z,12.30
2017-11-01T18:21:38.764Z,11.27
2017-11-01T18:24:07.593Z,10.23
2017-11-01T18:26:35.679Z,10.33
2017-11-01T18:29:03.798Z,9.80
2017-11-01T18:31:31.877Z,12.03
2017-11-01T18:33:59.980Z,10.33
2017-11-01T18:36:28.049Z,8.83
2017-11-01T18:38:56.314Z,9.00
2017-11-01T18:41:24.360Z,8.70
2017-11-01T18:43:54.651Z,8.07
2017-11-01T18:46:24.152Z,6.67
2017-11-01T18:48:52.421Z,8.20
2017-11-01T18:51:22.022Z,7.33
2017-11-01T18:53:51.030Z,7.87
2017-11-01T18:56:19.084Z,6.93
2017-11-01T18:58:47.166Z,7.50
2017-11-01T19:01:16.480Z,6.90
2017-11-01T19:03:46.734Z,6.37
2017-11-01T19:06:14.809Z,6.33
2017-11-01T19:08:49.626Z,6.33
2017-11-01T19:11:19.412Z,7.23
2017-11-01T19:13:47.522Z,7.77
2017-11-01T19:16:15.660Z,9.23
2017-11-01T19:18:44.555Z,6.63
2017-11-01T19:21:12.667Z,7.17
2017-11-01T19:23:40.790Z,8.50
2017-11-01T19:26:08.866Z,8.67
2017-11-01T19:28:36.981Z,7.50
2017-11-01T19:31:05.068Z,7.33
2017-11-01T19:33:33.933Z,6.60
2017-11-01T19:36:01.988Z,6.63
2017-11-01T19:38:30.076Z,7.77
2017-11-01T19:40:58.148Z,6.27
2017-11-01T19:43:50.997Z,7.23
2017-11-01T19:46:21.533Z,6.23
2017-11-01T19:48:58.396Z,6.10
2017-11-01T19:51:32.530Z,6.00
2017-11-01T19:54:06.568Z,6.27
2017-11-01T19:56:37.277Z,6.37
2017-11-01T19:59:08.826Z,6.37
2017-11-01T20:01:42.703Z,7.13
2017-11-01T20:04:29.155Z,6.50
2017-11-01T20:06:59.622Z,6.27
2017-11-01T20:09:35.829Z,7.23
2017-11-01T20:12:06.104Z,6.77
2017-11-01T20:14:37.581Z,5.60
2017-11-01T20:17:06.562Z,7.03
2017-11-01T20:19:36.224Z,6.40
2017-11-01T20:22:05.419Z,6.30
2017-11-01T20:24:38.052Z,6.00
2017-11-01T20:29:48.253Z,5.70
2017-11-01T20:32:18.002Z,5.30
2017-11-01T20:34:47.623Z,5.63
2017-11-01T20:37:24.246Z,5.50
2017-11-01T20:39:54.605Z,5.00
2017-11-01T20:42:24.488Z,5.60
2017-11-01T20:44:52.596Z,6.20
2017-11-01T20:47:20.716Z,4.87
2017-11-01T20:49:48.778Z,6.20
2017-11-01T20:52:17.818Z,5.87
2017-11-01T20:54:45.920Z,5.70
2017-11-01T20:57:14.024Z,7.87
2017-11-01T20:59:42.187Z,6.10
2017-11-01T21:02:10.281Z,7.50
2017-11-01T21:04:38.376Z,5.50
2017-11-01T21:07:06.599Z,9.30
2017-11-01T21:09:35.438Z,9.40
2017-11-01T21:12:03.562Z,11.07
2017-11-01T21:14:32.375Z,10.83
2017-11-01T21:17:00.476Z,11.13
2017-11-01T21:19:28.540Z,11.07
2017-11-01T21:21:56.644Z,10.70
2017-11-01T21:24:25.489Z,10.27
2017-11-01T21:26:53.567Z,10.07
2017-11-01T21:29:21.682Z,9.87
2017-11-01T21:31:49.788Z,10.43
2017-11-01T21:34:17.880Z,9.53
2017-11-01T21:36:48.132Z,10.83
2017-11-01T21:39:20.525Z,11.17
2017-11-01T21:41:49.471Z,11.40
2017-11-01T21:44:17.627Z,22.30
2017-11-01T21:46:45.786Z,12.47
2017-11-01T21:49:14.608Z,7.77
2017-11-01T21:51:43.131Z,10.33
2017-11-01T21:54:11.423Z,9.10
2017-11-01T21:56:40.395Z,9.30
2017-11-01T21:59:10.515Z,8.80
2017-11-01T22:01:38.741Z,10.07
2017-11-01T22:04:06.857Z,8.80
2017-11-01T22:06:34.982Z,9.17
2017-11-01T22:09:03.824Z,8.40
2017-11-01T22:11:31.919Z,7.80
2017-11-01T22:14:00.035Z,7.10
2017-11-01T22:16:28.129Z,6.80
2017-11-01T22:18:56.196Z,7.33
2017-11-01T22:21:24.470Z,6.80
2017-11-01T22:23:52.682Z,7.13
2017-11-01T22:26:21.956Z,6.90
2017-11-01T22:28:50.220Z,6.33
2017-11-01T22:31:23.255Z,5.97
2017-11-01T22:33:51.463Z,5.80
2017-11-01T22:36:20.431Z,5.93
2017-11-01T22:38:49.808Z,6.30
2017-11-01T22:41:18.786Z,6.20
2017-11-01T22:43:48.510Z,5.17
2017-11-01T22:46:17.380Z,6.07
2017-11-01T22:48:45.448Z,6.53
2017-11-01T22:51:13.524Z,5.63
2017-11-01T22:53:41.607Z,6.30
2017-11-01T22:56:09.704Z,5.20
2017-11-01T22:58:38.524Z,5.43
2017-11-01T23:01:06.599Z,5.50
2017-11-01T23:03:34.671Z,5.07
2017-11-01T23:06:02.774Z,5.80
2017-11-01T23:08:31.623Z,5.87
2017-11-01T23:10:59.667Z,5.73
2017-11-01T23:13:27.763Z,6.00
2017-11-01T23:15:55.821Z,5.37
2017-11-01T23:18:23.879Z,5.87
2017-11-01T23:20:52.162Z,6.03
2017-11-01T23:23:20.263Z,5.93
2017-11-01T23:25:48.352Z,6.40
2017-11-01T23:28:16.407Z,6.23
2017-11-01T23:30:44.466Z,5.30
2017-11-01T23:33:12.572Z,5.70
2017-11-01T23:35:41.530Z,4.87
2017-11-01T23:38:09.814Z,4.87
2017-11-01T23:40:38.867Z,5.33
2017-11-01T23:43:07.083Z,5.20
2017-11-01T23:45:35.319Z,8.33
2017-11-01T23:48:04.352Z,8.40
2017-11-01T23:50:33.957Z,6.70
2017-11-01T23:53:02.915Z,5.73
2017-11-01T23:55:32.059Z,7.23
2017-11-01T23:58:00.381Z,5.93
